Decoded Metar for WMKP (PENANG in MALAYSIA) (IATA:PEN) | Meteo·Mobile Aviation Weather
aviador You're here:

WMKP Decoded Metar

PENANG in MALAYSIA
Report Time2019-04-21 00:00:00
UTC Time2019-04-21 00:41:00
Flight Rules vfr VFR
WindCalm
Visibility9000 m
Phenomena:N/A
Clouds:Few 020 Hf
Scattered 140 Hf
Broken 270 Hf
Expected CloudBase > 800 ft AGL from Temp-Dew spread
Ceiling27,000 ft
Temp28°C (ISA +13)
Dew Point26°C (89% RH)
Heat Index33.6°C
QNH1006 hPa
Density Alt2,188 ft
Elevation13 ft
Report Wrong Elevation
Raw Report
METAR WMKP 210000Z 00000KT 9000 FEW020 SCT140 BKN270 28/26 Q1006 NOSIG=

Extra information for WMKP:More info

Metar Taf Metar & Taf Last 4 Metars F.Rules Stats Wind Profile Meteogram Temp Stats Airport Information Weather charts Add Link Nearby VenuesMetar ALERT Operation Metar Decoded Social comments